sensor_id;sensor_type;location;lat;lon;timestamp;P1;durP1;ratioP1;P2;durP2;ratioP2
23718;SDS011;43322;52.230;5.702;2022-10-31T00:01:23;12.02;;;10.00;;
23718;SDS011;43322;52.230;5.702;2022-10-31T00:03:51;14.68;;;10.32;;
23718;SDS011;43322;52.230;5.702;2022-10-31T00:06:18;18.48;;;10.60;;
23718;SDS011;43322;52.230;5.702;2022-10-31T00:08:45;16.10;;;11.02;;
23718;SDS011;43322;52.230;5.702;2022-10-31T00:11:13;16.40;;;11.10;;
23718;SDS011;43322;52.230;5.702;2022-10-31T00:13:40;17.45;;;11.30;;
23718;SDS011;43322;52.230;5.702;2022-10-31T00:16:12;15.27;;;10.43;;
23718;SDS011;43322;52.230;5.702;2022-10-31T00:18:40;14.07;;;10.50;;
23718;SDS011;43322;52.230;5.702;2022-10-31T00:21:07;15.27;;;11.00;;
23718;SDS011;43322;52.230;5.702;2022-10-31T00:23:34;12.68;;;10.60;;
23718;SDS011;43322;52.230;5.702;2022-10-31T00:26:01;15.75;;;11.35;;
23718;SDS011;43322;52.230;5.702;2022-10-31T00:28:30;18.38;;;11.07;;
23718;SDS011;43322;52.230;5.702;2022-10-31T00:30:59;15.45;;;10.75;;
23718;SDS011;43322;52.230;5.702;2022-10-31T00:33:26;15.70;;;11.20;;
23718;SDS011;43322;52.230;5.702;2022-10-31T00:35:53;17.55;;;10.20;;
23718;SDS011;43322;52.230;5.702;2022-10-31T00:38:20;17.63;;;11.70;;
23718;SDS011;43322;52.230;5.702;2022-10-31T00:40:47;17.23;;;10.52;;
23718;SDS011;43322;52.230;5.702;2022-10-31T00:43:14;13.75;;;10.52;;
23718;SDS011;43322;52.230;5.702;2022-10-31T00:45:42;16.80;;;10.52;;
23718;SDS011;43322;52.230;5.702;2022-10-31T00:48:09;13.65;;;10.07;;
23718;SDS011;43322;52.230;5.702;2022-10-31T00:50:37;15.15;;;10.40;;
23718;SDS011;43322;52.230;5.702;2022-10-31T00:53:04;21.00;;;11.48;;
23718;SDS011;43322;52.230;5.702;2022-10-31T00:55:31;16.48;;;11.50;;
23718;SDS011;43322;52.230;5.702;2022-10-31T00:57:57;16.10;;;11.27;;
23718;SDS011;43322;52.230;5.702;2022-10-31T01:00:24;16.02;;;11.40;;
23718;SDS011;43322;52.230;5.702;2022-10-31T01:02:53;14.35;;;10.85;;
23718;SDS011;43322;52.230;5.702;2022-10-31T01:05:20;14.55;;;10.30;;
23718;SDS011;43322;52.230;5.702;2022-10-31T01:07:46;16.55;;;12.38;;
23718;SDS011;43322;52.230;5.702;2022-10-31T01:10:13;18.38;;;11.77;;
23718;SDS011;43322;52.230;5.702;2022-10-31T01:12:41;13.38;;;11.48;;
23718;SDS011;43322;52.230;5.702;2022-10-31T01:15:11;13.73;;;11.15;;
23718;SDS011;43322;52.230;5.702;2022-10-31T01:17:39;14.73;;;11.75;;
23718;SDS011;43322;52.230;5.702;2022-10-31T01:20:08;14.00;;;10.30;;
23718;SDS011;43322;52.230;5.702;2022-10-31T01:22:36;12.77;;;10.45;;
23718;SDS011;43322;52.230;5.702;2022-10-31T01:25:04;10.35;;;9.25;;
23718;SDS011;43322;52.230;5.702;2022-10-31T01:27:32;10.57;;;9.10;;
23718;SDS011;43322;52.230;5.702;2022-10-31T01:29:58;10.65;;;8.40;;
23718;SDS011;43322;52.230;5.702;2022-10-31T01:32:26;11.63;;;9.45;;
23718;SDS011;43322;52.230;5.702;2022-10-31T01:34:53;14.52;;;9.30;;
23718;SDS011;43322;52.230;5.702;2022-10-31T01:37:21;9.65;;;8.65;;
23718;SDS011;43322;52.230;5.702;2022-10-31T01:39:48;9.55;;;8.63;;
23718;SDS011;43322;52.230;5.702;2022-10-31T01:42:15;12.23;;;9.45;;
23718;SDS011;43322;52.230;5.702;2022-10-31T01:44:48;10.68;;;9.52;;
23718;SDS011;43322;52.230;5.702;2022-10-31T01:47:19;10.20;;;9.20;;
23718;SDS011;43322;52.230;5.702;2022-10-31T01:49:51;10.05;;;8.57;;
23718;SDS011;43322;52.230;5.702;2022-10-31T01:52:20;11.23;;;8.85;;
23718;SDS011;43322;52.230;5.702;2022-10-31T01:54:51;10.05;;;9.07;;
23718;SDS011;43322;52.230;5.702;2022-10-31T01:57:22;13.25;;;9.85;;
23718;SDS011;43322;52.230;5.702;2022-10-31T01:59:51;16.20;;;11.10;;
23718;SDS011;43322;52.230;5.702;2022-10-31T02:02:22;12.60;;;9.82;;
23718;SDS011;43322;52.230;5.702;2022-10-31T02:04:50;10.15;;;8.77;;
23718;SDS011;43322;52.230;5.702;2022-10-31T02:07:18;12.07;;;10.70;;
23718;SDS011;43322;52.230;5.702;2022-10-31T02:09:51;11.25;;;10.02;;
23718;SDS011;43322;52.230;5.702;2022-10-31T02:12:20;12.13;;;10.05;;
23718;SDS011;43322;52.230;5.702;2022-10-31T02:14:47;13.65;;;9.88;;
23718;SDS011;43322;52.230;5.702;2022-10-31T02:17:14;14.05;;;10.25;;
23718;SDS011;43322;52.230;5.702;2022-10-31T02:19:47;17.67;;;11.70;;
23718;SDS011;43322;52.230;5.702;2022-10-31T02:22:22;12.32;;;11.02;;
23718;SDS011;43322;52.230;5.702;2022-10-31T02:24:58;11.40;;;9.85;;
23718;SDS011;43322;52.230;5.702;2022-10-31T02:30:53;12.32;;;9.60;;
23718;SDS011;43322;52.230;5.702;2022-10-31T02:33:29;13.75;;;10.77;;
23718;SDS011;43322;52.230;5.702;2022-10-31T02:36:04;11.25;;;10.15;;
23718;SDS011;43322;52.230;5.702;2022-10-31T02:38:38;13.20;;;11.10;;
23718;SDS011;43322;52.230;5.702;2022-10-31T02:41:18;12.75;;;10.77;;
23718;SDS011;43322;52.230;5.702;2022-10-31T02:43:54;14.02;;;11.65;;
23718;SDS011;43322;52.230;5.702;2022-10-31T02:46:30;15.55;;;11.52;;
23718;SDS011;43322;52.230;5.702;2022-10-31T02:49:01;14.15;;;11.55;;
23718;SDS011;43322;52.230;5.702;2022-10-31T02:51:33;12.77;;;10.65;;
23718;SDS011;43322;52.230;5.702;2022-10-31T02:54:01;18.40;;;11.63;;
23718;SDS011;43322;52.230;5.702;2022-10-31T02:56:28;15.52;;;11.43;;
23718;SDS011;43322;52.230;5.702;2022-10-31T02:58:55;13.93;;;11.35;;
23718;SDS011;43322;52.230;5.702;2022-10-31T03:01:41;12.82;;;10.43;;
23718;SDS011;43322;52.230;5.702;2022-10-31T03:04:29;16.75;;;12.05;;
23718;SDS011;43322;52.230;5.702;2022-10-31T03:07:08;14.02;;;12.02;;
23718;SDS011;43322;52.230;5.702;2022-10-31T03:09:41;18.88;;;11.10;;
23718;SDS011;43322;52.230;5.702;2022-10-31T03:12:16;17.80;;;11.77;;
23718;SDS011;43322;52.230;5.702;2022-10-31T03:14:53;13.40;;;10.77;;
23718;SDS011;43322;52.230;5.702;2022-10-31T03:17:30;11.63;;;10.48;;
23718;SDS011;43322;52.230;5.702;2022-10-31T03:20:02;14.50;;;9.70;;
23718;SDS011;43322;52.230;5.702;2022-10-31T03:22:32;13.55;;;10.27;;
23718;SDS011;43322;52.230;5.702;2022-10-31T03:25:00;13.20;;;9.82;;
23718;SDS011;43322;52.230;5.702;2022-10-31T03:27:29;16.70;;;10.40;;
23718;SDS011;43322;52.230;5.702;2022-10-31T03:30:00;11.90;;;8.98;;
23718;SDS011;43322;52.230;5.702;2022-10-31T03:32:34;9.98;;;8.98;;
23718;SDS011;43322;52.230;5.702;2022-10-31T03:35:05;10.30;;;9.20;;
23718;SDS011;43322;52.230;5.702;2022-10-31T03:37:34;18.05;;;10.45;;
23718;SDS011;43322;52.230;5.702;2022-10-31T03:40:03;12.07;;;10.35;;
23718;SDS011;43322;52.230;5.702;2022-10-31T03:42:34;15.65;;;10.77;;
23718;SDS011;43322;52.230;5.702;2022-10-31T03:45:05;13.93;;;9.40;;
23718;SDS011;43322;52.230;5.702;2022-10-31T03:47:37;11.48;;;9.93;;
23718;SDS011;43322;52.230;5.702;2022-10-31T03:50:06;11.48;;;9.63;;
23718;SDS011;43322;52.230;5.702;2022-10-31T03:52:35;11.27;;;10.02;;
23718;SDS011;43322;52.230;5.702;2022-10-31T03:55:07;10.68;;;9.68;;
23718;SDS011;43322;52.230;5.702;2022-10-31T03:57:39;13.18;;;9.88;;
23718;SDS011;43322;52.230;5.702;2022-10-31T04:00:11;12.50;;;9.63;;
23718;SDS011;43322;52.230;5.702;2022-10-31T04:02:42;13.20;;;9.57;;
23718;SDS011;43322;52.230;5.702;2022-10-31T04:05:13;10.93;;;9.98;;
23718;SDS011;43322;52.230;5.702;2022-10-31T04:07:43;16.05;;;10.95;;
23718;SDS011;43322;52.230;5.702;2022-10-31T04:10:13;12.00;;;9.75;;
23718;SDS011;43322;52.230;5.702;2022-10-31T04:12:42;25.60;;;11.73;;
23718;SDS011;43322;52.230;5.702;2022-10-31T04:15:12;18.85;;;11.98;;
23718;SDS011;43322;52.230;5.702;2022-10-31T04:17:40;15.75;;;11.68;;
23718;SDS011;43322;52.230;5.702;2022-10-31T04:20:11;18.60;;;12.18;;
23718;SDS011;43322;52.230;5.702;2022-10-31T04:22:41;16.08;;;12.85;;
23718;SDS011;43322;52.230;5.702;2022-10-31T04:25:08;16.63;;;12.65;;
23718;SDS011;43322;52.230;5.702;2022-10-31T04:27:35;13.95;;;11.25;;
23718;SDS011;43322;52.230;5.702;2022-10-31T04:30:02;18.05;;;13.20;;
23718;SDS011;43322;52.230;5.702;2022-10-31T04:32:29;19.25;;;13.40;;
23718;SDS011;43322;52.230;5.702;2022-10-31T04:34:57;23.10;;;15.95;;
23718;SDS011;43322;52.230;5.702;2022-10-31T04:37:24;19.75;;;15.07;;
23718;SDS011;43322;52.230;5.702;2022-10-31T04:39:50;21.95;;;16.60;;
23718;SDS011;43322;52.230;5.702;2022-10-31T04:42:17;20.27;;;16.45;;
23718;SDS011;43322;52.230;5.702;2022-10-31T04:44:44;20.30;;;16.38;;
23718;SDS011;43322;52.230;5.702;2022-10-31T04:47:10;17.75;;;14.57;;
23718;SDS011;43322;52.230;5.702;2022-10-31T04:49:37;18.17;;;16.08;;
23718;SDS011;43322;52.230;5.702;2022-10-31T04:52:05;24.20;;;17.75;;
23718;SDS011;43322;52.230;5.702;2022-10-31T04:54:33;21.45;;;16.38;;
23718;SDS011;43322;52.230;5.702;2022-10-31T04:56:59;18.20;;;15.35;;
23718;SDS011;43322;52.230;5.702;2022-10-31T04:59:26;23.95;;;16.63;;
23718;SDS011;43322;52.230;5.702;2022-10-31T05:01:53;26.50;;;18.23;;
23718;SDS011;43322;52.230;5.702;2022-10-31T05:04:20;24.63;;;19.38;;
23718;SDS011;43322;52.230;5.702;2022-10-31T05:06:46;23.48;;;17.98;;
23718;SDS011;43322;52.230;5.702;2022-10-31T05:09:14;23.90;;;18.20;;
23718;SDS011;43322;52.230;5.702;2022-10-31T05:11:41;21.73;;;17.95;;
23718;SDS011;43322;52.230;5.702;2022-10-31T05:14:08;24.60;;;18.35;;
23718;SDS011;43322;52.230;5.702;2022-10-31T05:16:35;23.67;;;17.25;;
23718;SDS011;43322;52.230;5.702;2022-10-31T05:19:01;22.85;;;17.80;;
23718;SDS011;43322;52.230;5.702;2022-10-31T05:21:28;22.35;;;17.73;;
23718;SDS011;43322;52.230;5.702;2022-10-31T05:23:55;20.10;;;16.45;;
23718;SDS011;43322;52.230;5.702;2022-10-31T05:26:23;22.48;;;16.70;;
23718;SDS011;43322;52.230;5.702;2022-10-31T05:28:50;18.38;;;15.23;;
23718;SDS011;43322;52.230;5.702;2022-10-31T05:31:16;15.93;;;13.73;;
23718;SDS011;43322;52.230;5.702;2022-10-31T05:33:43;14.38;;;13.00;;
23718;SDS011;43322;52.230;5.702;2022-10-31T05:36:10;13.63;;;12.23;;
23718;SDS011;43322;52.230;5.702;2022-10-31T05:38:36;16.05;;;12.63;;
23718;SDS011;43322;52.230;5.702;2022-10-31T05:41:03;12.98;;;11.68;;
23718;SDS011;43322;52.230;5.702;2022-10-31T05:43:32;17.65;;;12.98;;
23718;SDS011;43322;52.230;5.702;2022-10-31T05:45:58;14.68;;;12.63;;
23718;SDS011;43322;52.230;5.702;2022-10-31T05:48:25;14.50;;;12.40;;
23718;SDS011;43322;52.230;5.702;2022-10-31T05:50:52;13.45;;;11.75;;
23718;SDS011;43322;52.230;5.702;2022-10-31T05:53:18;14.90;;;11.60;;
23718;SDS011;43322;52.230;5.702;2022-10-31T05:55:46;14.38;;;10.98;;
23718;SDS011;43322;52.230;5.702;2022-10-31T05:58:12;9.35;;;8.25;;
23718;SDS011;43322;52.230;5.702;2022-10-31T06:00:40;15.45;;;8.57;;
23718;SDS011;43322;52.230;5.702;2022-10-31T06:03:08;11.15;;;9.90;;
23718;SDS011;43322;52.230;5.702;2022-10-31T06:05:35;10.55;;;9.65;;
23718;SDS011;43322;52.230;5.702;2022-10-31T06:08:02;9.68;;;8.77;;
23718;SDS011;43322;52.230;5.702;2022-10-31T06:10:28;14.43;;;12.40;;
23718;SDS011;43322;52.230;5.702;2022-10-31T06:12:55;14.18;;;12.60;;
23718;SDS011;43322;52.230;5.702;2022-10-31T06:15:22;17.48;;;13.35;;
23718;SDS011;43322;52.230;5.702;2022-10-31T06:17:58;16.83;;;14.82;;
23718;SDS011;43322;52.230;5.702;2022-10-31T06:20:26;20.55;;;16.02;;
23718;SDS011;43322;52.230;5.702;2022-10-31T06:22:53;18.00;;;14.63;;
23718;SDS011;43322;52.230;5.702;2022-10-31T06:25:19;24.70;;;17.30;;
23718;SDS011;43322;52.230;5.702;2022-10-31T06:27:46;23.45;;;18.38;;
23718;SDS011;43322;52.230;5.702;2022-10-31T06:30:13;26.25;;;18.40;;
23718;SDS011;43322;52.230;5.702;2022-10-31T06:32:40;26.73;;;19.58;;
23718;SDS011;43322;52.230;5.702;2022-10-31T06:35:08;28.38;;;20.58;;
23718;SDS011;43322;52.230;5.702;2022-10-31T06:37:36;24.35;;;17.60;;
23718;SDS011;43322;52.230;5.702;2022-10-31T06:40:03;25.33;;;18.40;;
23718;SDS011;43322;52.230;5.702;2022-10-31T06:42:30;27.75;;;19.23;;
23718;SDS011;43322;52.230;5.702;2022-10-31T06:44:57;23.80;;;18.83;;
23718;SDS011;43322;52.230;5.702;2022-10-31T06:47:24;26.98;;;18.83;;
23718;SDS011;43322;52.230;5.702;2022-10-31T06:49:50;25.15;;;18.85;;
23718;SDS011;43322;52.230;5.702;2022-10-31T06:52:19;25.05;;;19.92;;
23718;SDS011;43322;52.230;5.702;2022-10-31T06:54:45;24.35;;;18.38;;
23718;SDS011;43322;52.230;5.702;2022-10-31T06:57:12;29.35;;;20.98;;
23718;SDS011;43322;52.230;5.702;2022-10-31T06:59:39;32.85;;;21.90;;
23718;SDS011;43322;52.230;5.702;2022-10-31T07:02:07;36.30;;;24.92;;
23718;SDS011;43322;52.230;5.702;2022-10-31T07:04:35;29.95;;;20.98;;
23718;SDS011;43322;52.230;5.702;2022-10-31T07:07:02;26.98;;;21.55;;
23718;SDS011;43322;52.230;5.702;2022-10-31T07:09:30;29.85;;;22.50;;
23718;SDS011;43322;52.230;5.702;2022-10-31T07:11:57;30.23;;;22.63;;
23718;SDS011;43322;52.230;5.702;2022-10-31T07:14:23;36.45;;;23.55;;
23718;SDS011;43322;52.230;5.702;2022-10-31T07:16:50;33.72;;;24.25;;
23718;SDS011;43322;52.230;5.702;2022-10-31T07:19:17;33.03;;;23.63;;
23718;SDS011;43322;52.230;5.702;2022-10-31T07:21:44;32.70;;;24.73;;
23718;SDS011;43322;52.230;5.702;2022-10-31T07:24:10;38.47;;;25.13;;
23718;SDS011;43322;52.230;5.702;2022-10-31T07:26:38;37.78;;;25.77;;
23718;SDS011;43322;52.230;5.702;2022-10-31T07:29:07;36.35;;;25.13;;
23718;SDS011;43322;52.230;5.702;2022-10-31T07:31:33;39.20;;;26.38;;
23718;SDS011;43322;52.230;5.702;2022-10-31T07:34:00;38.60;;;26.98;;
23718;SDS011;43322;52.230;5.702;2022-10-31T07:36:27;42.25;;;26.75;;
23718;SDS011;43322;52.230;5.702;2022-10-31T07:38:54;45.08;;;27.25;;
23718;SDS011;43322;52.230;5.702;2022-10-31T07:41:21;47.35;;;27.95;;
23718;SDS011;43322;52.230;5.702;2022-10-31T07:43:49;39.72;;;26.42;;
23718;SDS011;43322;52.230;5.702;2022-10-31T07:46:15;33.88;;;23.70;;
23718;SDS011;43322;52.230;5.702;2022-10-31T07:48:42;35.92;;;24.52;;
23718;SDS011;43322;52.230;5.702;2022-10-31T07:51:09;32.83;;;23.08;;
23718;SDS011;43322;52.230;5.702;2022-10-31T07:53:36;38.20;;;27.02;;
23718;SDS011;43322;52.230;5.702;2022-10-31T07:56:02;40.78;;;27.23;;
23718;SDS011;43322;52.230;5.702;2022-10-31T07:58:29;41.35;;;26.70;;
23718;SDS011;43322;52.230;5.702;2022-10-31T08:00:57;37.92;;;26.35;;
23718;SDS011;43322;52.230;5.702;2022-10-31T08:03:24;39.55;;;26.08;;
23718;SDS011;43322;52.230;5.702;2022-10-31T08:05:51;37.40;;;24.50;;
23718;SDS011;43322;52.230;5.702;2022-10-31T08:08:18;37.17;;;25.10;;
23718;SDS011;43322;52.230;5.702;2022-10-31T08:10:44;39.17;;;24.95;;
23718;SDS011;43322;52.230;5.702;2022-10-31T08:13:12;40.83;;;26.83;;
23718;SDS011;43322;52.230;5.702;2022-10-31T08:15:40;39.30;;;25.65;;
23718;SDS011;43322;52.230;5.702;2022-10-31T08:18:10;37.47;;;24.35;;
23718;SDS011;43322;52.230;5.702;2022-10-31T08:20:38;43.78;;;27.35;;
23718;SDS011;43322;52.230;5.702;2022-10-31T08:23:05;41.13;;;25.90;;
23718;SDS011;43322;52.230;5.702;2022-10-31T08:25:32;45.40;;;27.75;;
23718;SDS011;43322;52.230;5.702;2022-10-31T08:28:00;40.03;;;26.55;;
23718;SDS011;43322;52.230;5.702;2022-10-31T08:30:28;42.22;;;26.27;;
23718;SDS011;43322;52.230;5.702;2022-10-31T08:33:00;41.35;;;26.13;;
23718;SDS011;43322;52.230;5.702;2022-10-31T08:35:29;43.33;;;26.45;;
23718;SDS011;43322;52.230;5.702;2022-10-31T08:37:56;36.95;;;24.88;;
23718;SDS011;43322;52.230;5.702;2022-10-31T08:40:23;42.25;;;25.77;;
23718;SDS011;43322;52.230;5.702;2022-10-31T08:42:57;35.95;;;23.65;;
23718;SDS011;43322;52.230;5.702;2022-10-31T08:45:25;30.65;;;21.45;;
23718;SDS011;43322;52.230;5.702;2022-10-31T08:47:56;33.50;;;23.13;;
23718;SDS011;43322;52.230;5.702;2022-10-31T08:50:23;25.08;;;19.67;;
23718;SDS011;43322;52.230;5.702;2022-10-31T08:52:51;27.38;;;18.40;;
23718;SDS011;43322;52.230;5.702;2022-10-31T08:55:18;25.85;;;17.98;;
23718;SDS011;43322;52.230;5.702;2022-10-31T08:57:45;26.75;;;17.90;;
23718;SDS011;43322;52.230;5.702;2022-10-31T09:00:11;24.00;;;17.48;;
23718;SDS011;43322;52.230;5.702;2022-10-31T09:02:38;22.95;;;16.23;;
23718;SDS011;43322;52.230;5.702;2022-10-31T09:05:08;21.98;;;17.58;;
23718;SDS011;43322;52.230;5.702;2022-10-31T09:07:35;31.10;;;17.55;;
23718;SDS011;43322;52.230;5.702;2022-10-31T09:10:03;25.40;;;16.50;;
23718;SDS011;43322;52.230;5.702;2022-10-31T09:12:30;23.80;;;17.50;;
23718;SDS011;43322;52.230;5.702;2022-10-31T09:14:57;23.20;;;16.30;;
23718;SDS011;43322;52.230;5.702;2022-10-31T09:17:26;22.92;;;16.38;;
23718;SDS011;43322;52.230;5.702;2022-10-31T09:19:54;25.30;;;16.83;;
23718;SDS011;43322;52.230;5.702;2022-10-31T09:22:21;22.50;;;15.45;;
23718;SDS011;43322;52.230;5.702;2022-10-31T09:24:47;22.42;;;16.20;;
23718;SDS011;43322;52.230;5.702;2022-10-31T09:27:15;23.33;;;14.80;;
23718;SDS011;43322;52.230;5.702;2022-10-31T09:29:42;19.30;;;15.38;;
23718;SDS011;43322;52.230;5.702;2022-10-31T09:32:09;20.95;;;15.02;;
23718;SDS011;43322;52.230;5.702;2022-10-31T09:34:35;21.60;;;14.68;;
23718;SDS011;43322;52.230;5.702;2022-10-31T09:37:02;21.33;;;14.35;;
23718;SDS011;43322;52.230;5.702;2022-10-31T09:39:29;24.33;;;14.70;;
23718;SDS011;43322;52.230;5.702;2022-10-31T09:42:00;17.83;;;13.90;;
23718;SDS011;43322;52.230;5.702;2022-10-31T09:44:39;19.00;;;14.18;;
23718;SDS011;43322;52.230;5.702;2022-10-31T09:47:17;16.00;;;12.00;;
23718;SDS011;43322;52.230;5.702;2022-10-31T09:49:57;13.38;;;10.88;;
23718;SDS011;43322;52.230;5.702;2022-10-31T09:52:39;13.45;;;11.68;;
23718;SDS011;43322;52.230;5.702;2022-10-31T09:55:13;17.10;;;12.77;;
23718;SDS011;43322;52.230;5.702;2022-10-31T09:57:43;15.38;;;11.00;;
23718;SDS011;43322;52.230;5.702;2022-10-31T10:00:16;17.10;;;10.98;;
23718;SDS011;43322;52.230;5.702;2022-10-31T10:02:46;15.73;;;10.85;;
23718;SDS011;43322;52.230;5.702;2022-10-31T10:05:18;14.93;;;10.88;;
23718;SDS011;43322;52.230;5.702;2022-10-31T10:07:53;10.18;;;9.18;;
23718;SDS011;43322;52.230;5.702;2022-10-31T10:10:27;13.65;;;10.05;;
23718;SDS011;43322;52.230;5.702;2022-10-31T10:13:12;11.52;;;9.27;;
23718;SDS011;43322;52.230;5.702;2022-10-31T10:16:03;9.27;;;8.32;;
23718;SDS011;43322;52.230;5.702;2022-10-31T10:18:41;18.08;;;9.00;;
23718;SDS011;43322;52.230;5.702;2022-10-31T10:21:19;13.05;;;9.48;;
23718;SDS011;43322;52.230;5.702;2022-10-31T10:24:03;12.48;;;9.25;;
23718;SDS011;43322;52.230;5.702;2022-10-31T10:26:43;11.07;;;8.63;;
23718;SDS011;43322;52.230;5.702;2022-10-31T10:29:17;8.90;;;7.65;;
23718;SDS011;43322;52.230;5.702;2022-10-31T10:32:00;12.52;;;9.00;;
23718;SDS011;43322;52.230;5.702;2022-10-31T10:34:31;12.05;;;8.02;;
23718;SDS011;43322;52.230;5.702;2022-10-31T10:37:04;8.27;;;7.43;;
23718;SDS011;43322;52.230;5.702;2022-10-31T10:39:38;12.18;;;7.72;;
23718;SDS011;43322;52.230;5.702;2022-10-31T10:42:11;14.15;;;8.15;;
23718;SDS011;43322;52.230;5.702;2022-10-31T10:44:57;11.57;;;7.82;;
23718;SDS011;43322;52.230;5.702;2022-10-31T10:47:46;10.77;;;7.70;;
23718;SDS011;43322;52.230;5.702;2022-10-31T10:50:21;10.13;;;8.18;;
23718;SDS011;43322;52.230;5.702;2022-10-31T10:52:51;9.50;;;7.40;;
23718;SDS011;43322;52.230;5.702;2022-10-31T10:55:29;8.82;;;7.30;;
23718;SDS011;43322;52.230;5.702;2022-10-31T10:58:02;9.10;;;8.15;;
23718;SDS011;43322;52.230;5.702;2022-10-31T11:00:32;13.20;;;8.77;;
23718;SDS011;43322;52.230;5.702;2022-10-31T11:03:05;15.23;;;9.75;;
23718;SDS011;43322;52.230;5.702;2022-10-31T11:05:33;19.23;;;10.15;;
23718;SDS011;43322;52.230;5.702;2022-10-31T11:08:03;20.40;;;10.70;;
23718;SDS011;43322;52.230;5.702;2022-10-31T11:10:31;18.27;;;11.60;;
23718;SDS011;43322;52.230;5.702;2022-10-31T11:13:00;19.27;;;10.35;;
23718;SDS011;43322;52.230;5.702;2022-10-31T11:15:31;19.92;;;10.93;;
23718;SDS011;43322;52.230;5.702;2022-10-31T11:18:01;15.38;;;10.05;;
23718;SDS011;43322;52.230;5.702;2022-10-31T11:20:31;19.38;;;11.25;;
23718;SDS011;43322;52.230;5.702;2022-10-31T11:23:03;18.58;;;11.35;;
23718;SDS011;43322;52.230;5.702;2022-10-31T11:25:40;24.55;;;12.60;;
23718;SDS011;43322;52.230;5.702;2022-10-31T11:28:14;22.85;;;12.45;;
23718;SDS011;43322;52.230;5.702;2022-10-31T11:30:42;21.02;;;13.38;;
23718;SDS011;43322;52.230;5.702;2022-10-31T11:33:13;20.77;;;14.05;;
23718;SDS011;43322;52.230;5.702;2022-10-31T11:35:45;23.45;;;13.00;;
23718;SDS011;43322;52.230;5.702;2022-10-31T11:38:14;29.92;;;15.68;;
23718;SDS011;43322;52.230;5.702;2022-10-31T11:40:51;24.88;;;13.23;;
23718;SDS011;43322;52.230;5.702;2022-10-31T11:43:19;19.38;;;12.02;;
23718;SDS011;43322;52.230;5.702;2022-10-31T11:45:47;23.25;;;12.80;;
23718;SDS011;43322;52.230;5.702;2022-10-31T11:48:15;17.75;;;12.40;;
23718;SDS011;43322;52.230;5.702;2022-10-31T11:50:48;20.13;;;11.38;;
23718;SDS011;43322;52.230;5.702;2022-10-31T11:53:17;16.77;;;11.52;;
23718;SDS011;43322;52.230;5.702;2022-10-31T11:55:47;18.90;;;11.82;;
23718;SDS011;43322;52.230;5.702;2022-10-31T11:58:25;19.30;;;11.65;;
23718;SDS011;43322;52.230;5.702;2022-10-31T12:00:53;21.77;;;11.40;;
23718;SDS011;43322;52.230;5.702;2022-10-31T12:03:26;12.50;;;10.50;;
23718;SDS011;43322;52.230;5.702;2022-10-31T12:06:12;16.15;;;11.38;;
23718;SDS011;43322;52.230;5.702;2022-10-31T12:08:42;21.45;;;11.80;;
23718;SDS011;43322;52.230;5.702;2022-10-31T12:11:13;18.70;;;11.60;;
23718;SDS011;43322;52.230;5.702;2022-10-31T12:13:51;17.65;;;11.50;;
23718;SDS011;43322;52.230;5.702;2022-10-31T12:16:26;20.60;;;12.73;;
23718;SDS011;43322;52.230;5.702;2022-10-31T12:18:58;17.05;;;12.57;;
23718;SDS011;43322;52.230;5.702;2022-10-31T12:21:40;20.83;;;13.30;;
23718;SDS011;43322;52.230;5.702;2022-10-31T12:24:21;19.17;;;13.07;;
23718;SDS011;43322;52.230;5.702;2022-10-31T12:26:59;19.63;;;13.30;;
23718;SDS011;43322;52.230;5.702;2022-10-31T12:29:40;22.80;;;14.23;;
23718;SDS011;43322;52.230;5.702;2022-10-31T12:32:26;20.38;;;13.73;;
23718;SDS011;43322;52.230;5.702;2022-10-31T12:35:05;24.73;;;14.77;;
23718;SDS011;43322;52.230;5.702;2022-10-31T12:38:02;26.30;;;15.77;;
23718;SDS011;43322;52.230;5.702;2022-10-31T12:40:43;26.42;;;15.50;;
23718;SDS011;43322;52.230;5.702;2022-10-31T12:43:24;25.80;;;15.65;;
23718;SDS011;43322;52.230;5.702;2022-10-31T12:46:01;23.75;;;16.33;;
23718;SDS011;43322;52.230;5.702;2022-10-31T12:51:27;25.77;;;17.00;;
23718;SDS011;43322;52.230;5.702;2022-10-31T12:54:15;24.60;;;16.40;;
23718;SDS011;43322;52.230;5.702;2022-10-31T12:57:10;25.55;;;17.30;;
23718;SDS011;43322;52.230;5.702;2022-10-31T12:59:43;27.75;;;18.00;;
23718;SDS011;43322;52.230;5.702;2022-10-31T13:02:14;30.30;;;19.15;;
23718;SDS011;43322;52.230;5.702;2022-10-31T13:04:47;30.52;;;19.75;;
23718;SDS011;43322;52.230;5.702;2022-10-31T13:07:18;36.55;;;21.00;;
23718;SDS011;43322;52.230;5.702;2022-10-31T13:09:52;34.85;;;20.40;;
23718;SDS011;43322;52.230;5.702;2022-10-31T13:12:23;35.47;;;20.70;;
23718;SDS011;43322;52.230;5.702;2022-10-31T13:14:52;30.90;;;19.42;;
23718;SDS011;43322;52.230;5.702;2022-10-31T13:17:22;30.23;;;19.88;;
23718;SDS011;43322;52.230;5.702;2022-10-31T13:19:54;37.10;;;20.80;;
23718;SDS011;43322;52.230;5.702;2022-10-31T13:22:30;36.45;;;19.98;;
23718;SDS011;43322;52.230;5.702;2022-10-31T13:25:03;33.92;;;20.13;;
23718;SDS011;43322;52.230;5.702;2022-10-31T13:27:40;29.50;;;18.88;;
23718;SDS011;43322;52.230;5.702;2022-10-31T13:30:12;35.88;;;19.85;;
23718;SDS011;43322;52.230;5.702;2022-10-31T13:32:42;39.28;;;20.02;;
23718;SDS011;43322;52.230;5.702;2022-10-31T13:35:15;30.60;;;18.67;;
23718;SDS011;43322;52.230;5.702;2022-10-31T13:37:48;29.00;;;18.67;;
23718;SDS011;43322;52.230;5.702;2022-10-31T13:40:24;33.00;;;19.73;;
23718;SDS011;43322;52.230;5.702;2022-10-31T13:43:02;31.58;;;19.70;;
23718;SDS011;43322;52.230;5.702;2022-10-31T13:45:46;32.38;;;20.83;;
23718;SDS011;43322;52.230;5.702;2022-10-31T13:48:19;34.45;;;20.35;;
23718;SDS011;43322;52.230;5.702;2022-10-31T13:51:00;35.13;;;21.02;;
23718;SDS011;43322;52.230;5.702;2022-10-31T13:53:39;30.85;;;21.00;;
23718;SDS011;43322;52.230;5.702;2022-10-31T13:56:15;35.58;;;21.45;;
23718;SDS011;43322;52.230;5.702;2022-10-31T13:58:55;36.88;;;21.58;;
23718;SDS011;43322;52.230;5.702;2022-10-31T14:01:45;34.13;;;21.10;;
23718;SDS011;43322;52.230;5.702;2022-10-31T14:04:15;33.88;;;21.25;;
23718;SDS011;43322;52.230;5.702;2022-10-31T14:06:54;38.75;;;21.83;;
23718;SDS011;43322;52.230;5.702;2022-10-31T14:09:26;31.30;;;20.08;;
23718;SDS011;43322;52.230;5.702;2022-10-31T14:11:57;33.20;;;20.77;;
23718;SDS011;43322;52.230;5.702;2022-10-31T14:14:29;33.47;;;20.90;;
23718;SDS011;43322;52.230;5.702;2022-10-31T14:17:00;29.33;;;19.33;;
23718;SDS011;43322;52.230;5.702;2022-10-31T14:19:27;30.20;;;18.95;;
23718;SDS011;43322;52.230;5.702;2022-10-31T14:21:54;31.98;;;18.98;;
23718;SDS011;43322;52.230;5.702;2022-10-31T14:24:31;29.48;;;17.63;;
23718;SDS011;43322;52.230;5.702;2022-10-31T14:27:02;34.88;;;18.85;;
23718;SDS011;43322;52.230;5.702;2022-10-31T14:29:32;34.28;;;18.40;;
23718;SDS011;43322;52.230;5.702;2022-10-31T14:32:05;32.30;;;18.60;;
23718;SDS011;43322;52.230;5.702;2022-10-31T14:34:41;33.25;;;18.85;;
23718;SDS011;43322;52.230;5.702;2022-10-31T14:40:07;33.53;;;18.30;;
23718;SDS011;43322;52.230;5.702;2022-10-31T14:42:50;33.22;;;18.05;;
23718;SDS011;43322;52.230;5.702;2022-10-31T14:45:29;37.17;;;18.42;;
23718;SDS011;43322;52.230;5.702;2022-10-31T14:48:06;27.98;;;17.38;;
23718;SDS011;43322;52.230;5.702;2022-10-31T14:50:42;31.58;;;18.17;;
23718;SDS011;43322;52.230;5.702;2022-10-31T14:53:14;31.50;;;18.73;;